createdAt,value
2022-12-15T00:04:20.016Z,98937.25
2022-12-15T00:14:42.305Z,98942.09
2022-12-15T00:25:04.867Z,98933.45
2022-12-15T00:35:28.242Z,98921.75
2022-12-15T00:45:50.656Z,98914.19
2022-12-15T00:56:13.170Z,98911.11
2022-12-15T01:06:38.383Z,98909.90
2022-12-15T01:17:01.132Z,98903.20
2022-12-15T01:27:04.991Z,98890.16
2022-12-15T01:37:08.932Z,98891.70
2022-12-15T01:47:14.441Z,98889.91
2022-12-15T01:57:22.914Z,98884.16
2022-12-15T02:07:27.159Z,98881.73
2022-12-15T02:18:08.652Z,98878.33
2022-12-15T02:28:50.179Z,98880.55
2022-12-15T02:38:53.821Z,98887.75
2022-12-15T02:49:24.009Z,98882.38
2022-12-15T02:59:55.812Z,98887.27
2022-12-15T03:10:04.646Z,98874.02
2022-12-15T03:20:12.248Z,98867.75
2022-12-15T03:30:17.072Z,98861.66
2022-12-15T03:40:22.581Z,98858.53
2022-12-15T03:50:29.857Z,98867.35
2022-12-15T04:00:34.152Z,98869.50
2022-12-15T04:10:40.635Z,98870.59
2022-12-15T04:20:44.379Z,98871.81
2022-12-15T04:31:12.436Z,98875.83
2022-12-15T04:41:37.318Z,98878.13
2022-12-15T04:51:59.651Z,98886.77
2022-12-15T05:02:22.127Z,98881.36
2022-12-15T05:12:44.882Z,98882.10
2022-12-15T05:23:12.865Z,98882.83
2022-12-15T05:33:16.475Z,98883.44
2022-12-15T05:43:24.771Z,98895.51
2022-12-15T05:53:30.408Z,98896.42
2022-12-15T06:03:35.147Z,98898.17
2022-12-15T06:13:38.993Z,98913.04
2022-12-15T06:23:43.158Z,98931.83
2022-12-15T06:33:48.601Z,98951.88
2022-12-15T06:43:55.971Z,98978.41
2022-12-15T06:53:59.679Z,98992.61
2022-12-15T07:04:06.096Z,98987.98
2022-12-15T07:14:11.498Z,99002.23
2022-12-15T07:24:18.930Z,99010.82
2022-12-15T07:34:23.034Z,99033.82
2022-12-15T07:44:26.682Z,99042.13
2022-12-15T07:54:30.928Z,99059.33
2022-12-15T08:04:34.652Z,99066.85
2022-12-15T08:14:38.496Z,99071.55
2022-12-15T08:24:42.462Z,99093.27
2022-12-15T08:34:49.547Z,99096.14
2022-12-15T08:44:56.866Z,99106.38
2022-12-15T08:55:04.207Z,99116.02
2022-12-15T09:05:09.124Z,99129.22
2022-12-15T09:15:13.207Z,99140.64
2022-12-15T09:25:16.933Z,99137.58
2022-12-15T09:35:20.967Z,99140.05
2022-12-15T09:45:31.544Z,99139.48
2022-12-15T09:55:38.074Z,99154.69
2022-12-15T10:06:21.445Z,99155.13
2022-12-15T10:16:50.209Z,99153.34
2022-12-15T10:27:17.435Z,99169.75
2022-12-15T10:37:26.453Z,99176.66
2022-12-15T10:47:32.317Z,99173.71
2022-12-15T10:57:36.190Z,99183.16
2022-12-15T11:07:41.225Z,99179.49
2022-12-15T11:17:45.088Z,99195.32
2022-12-15T11:27:54.272Z,99202.35
2022-12-15T11:38:12.062Z,99212.77
2022-12-15T11:48:43.221Z,99219.34
2022-12-15T11:59:24.178Z,99223.45
2022-12-15T12:09:52.316Z,99235.42
2022-12-15T12:20:03.870Z,99238.98
2022-12-15T12:30:18.247Z,99245.34
2022-12-15T12:40:50.304Z,99260.86
2022-12-15T12:51:18.851Z,99272.84
2022-12-15T13:01:34.840Z,99283.80
2022-12-15T13:13:03.841Z,99294.85
2022-12-15T13:22:54.870Z,99306.79
2022-12-15T13:33:19.560Z,99317.95
2022-12-15T13:43:48.895Z,99330.13
2022-12-15T13:54:21.961Z,99339.23
2022-12-15T14:04:26.407Z,99348.45
2022-12-15T14:14:37.703Z,99349.85
2022-12-15T14:35:26.706Z,99373.35
2022-12-15T14:45:32.929Z,99386.27
2022-12-15T14:55:38.676Z,99395.73
2022-12-15T15:03:14.311Z,99351.33
2022-12-15T15:05:47.063Z,99415.68
2022-12-15T15:16:06.729Z,99428.52
2022-12-15T15:26:14.177Z,99432.83
2022-12-15T15:36:17.726Z,99445.44
2022-12-15T15:46:28.426Z,99448.64
2022-12-15T15:56:32.258Z,99462.56
2022-12-15T16:06:43.485Z,99470.23
2022-12-15T16:16:50.391Z,99472.55
2022-12-15T16:26:54.284Z,99479.29
2022-12-15T16:37:00.727Z,99479.64
2022-12-15T16:47:04.408Z,99484.42
2022-12-15T16:57:12.312Z,99486.89
2022-12-15T17:07:20.007Z,99488.55
2022-12-15T17:17:26.598Z,99505.48
2022-12-15T17:27:30.574Z,99508.77
2022-12-15T17:37:35.516Z,99518.98
2022-12-15T17:47:39.291Z,99532.99
2022-12-15T17:57:43.096Z,99536.41
2022-12-15T18:07:50.678Z,99551.26
2022-12-15T18:17:54.825Z,99563.05
2022-12-15T18:28:00.266Z,99577.27
2022-12-15T18:38:14.713Z,99589.98
2022-12-15T18:48:40.077Z,99615.73
2022-12-15T18:58:43.948Z,99628.49
2022-12-15T19:08:50.798Z,99633.43
2022-12-15T19:19:17.201Z,99639.25
2022-12-15T19:29:22.232Z,99632.04
2022-12-15T19:39:27.759Z,99631.29
2022-12-15T19:49:31.409Z,99636.65
2022-12-15T19:59:35.064Z,99639.15
2022-12-15T20:09:40.317Z,99661.17
2022-12-15T20:19:46.482Z,99657.29
2022-12-15T20:29:50.425Z,99652.59
2022-12-15T20:39:57.818Z,99653.09
2022-12-15T20:50:01.921Z,99658.06
2022-12-15T21:00:06.745Z,99673.25
2022-12-15T21:10:12.606Z,99682.23
2022-12-15T21:20:16.432Z,99691.31
2022-12-15T21:30:22.716Z,99694.83
2022-12-15T21:40:29.127Z,99704.86
2022-12-15T21:50:34.665Z,99707.80
2022-12-15T22:00:42.324Z,99718.53
2022-12-15T22:10:51.938Z,99723.74
2022-12-15T22:20:56.504Z,99725.31
2022-12-15T22:31:03.662Z,99722.81
2022-12-15T22:41:23.988Z,99736.02
2022-12-15T22:51:27.612Z,99742.11
2022-12-15T23:01:31.633Z,99744.82
2022-12-15T23:11:38.111Z,99734.41
2022-12-15T23:21:41.958Z,99728.45
2022-12-15T23:31:45.584Z,99729.98
2022-12-15T23:41:49.240Z,99739.73
2022-12-15T23:51:52.904Z,99734.75
